Terminal Aerodrome Forecast
Issued by NWS

Home | Current Version | Previous Version | Text Only | Print | Product List | Glossary On
Versions: 1 2 3 4 5 6 7 8 9 10 11 12 13 14 15 16 17 18 19
000
FTUS43 KIND 020500
TAFHUF
TAF
KHUF 020520Z 0206/0306 34005KT 6SM BR FEW040 OVC100
      TEMPO 0206/0208 3SM -RA BR
     FM020800 00000KT 1 1/2SM BR FEW040 BKN100
     FM021300 01004KT P6SM SCT100 SCT250
     FM021500 02008KT P6SM SCT030 SCT100 SCT250
     FM030200 04003KT P6SM FEW100 SCT250=

USA.gov is the U.S. government's official web portal to all federal, state and local government web resources and services.